Time;durP1;ratioP1;P1;durP2;ratioP2;P2;SDS_P1;SDS_P2;PMS_P1;PMS_P2;Temp;Humidity;BMP_temperature;BMP_pressure;BME280_temperature;BME280_humidity;BME280_pressure;Samples;Min_cycle;Max_cycle;Signal;HPM_P1;HPM_P2
2021/01/17 00:00:11;;;;;;;35.65;6.13;;;6.70;92.00;;;;;;5074945;28;20053;-87
2021/01/17 00:02:37;;;;;;;24.05;5.25;;;6.70;91.90;;;;;;5055970;28;20021;-90
2021/01/17 00:05:09;;;;;;;26.20;5.32;;;6.70;92.00;;;;;;5073896;28;20023;-89
2021/01/17 00:07:35;;;;;;;34.80;5.65;;;6.70;92.00;;;;;;5069270;28;20029;-90
2021/01/17 00:10:01;;;;;;;34.65;6.18;;;6.60;92.20;;;;;;5037356;28;20517;-90
2021/01/17 00:12:26;;;;;;;36.22;5.70;;;6.60;92.40;;;;;;5055706;28;20025;-89
2021/01/17 00:14:52;;;;;;;30.02;6.18;;;6.50;92.60;;;;;;5038624;28;20029;-89
2021/01/17 00:17:17;;;;;;;39.55;6.35;;;6.60;92.40;;;;;;5037126;28;20040;-89
2021/01/17 00:19:43;;;;;;;35.83;5.82;;;6.60;92.20;;;;;;5038103;28;20112;-89
2021/01/17 00:22:09;;;;;;;37.47;10.85;;;6.60;91.80;;;;;;5056269;28;20039;-88
2021/01/17 00:24:35;;;;;;;26.75;5.80;;;6.70;91.70;;;;;;5037931;28;20108;-88
2021/01/17 00:27:00;;;;;;;31.02;5.30;;;6.70;91.30;;;;;;5042332;28;20026;-88
2021/01/17 00:29:26;;;;;;;31.23;5.15;;;6.70;91.00;;;;;;5052315;28;20096;-89
2021/01/17 00:31:52;;;;;;;26.13;4.65;;;6.70;90.80;;;;;;5055871;28;20028;-89
2021/01/17 00:34:18;;;;;;;33.30;6.80;;;6.70;91.00;;;;;;5053524;28;20020;-87
2021/01/17 00:36:44;;;;;;;30.10;5.00;;;6.70;91.20;;;;;;5048457;28;20086;-88
2021/01/17 00:39:09;;;;;;;35.25;5.68;;;6.70;90.90;;;;;;5054303;28;20386;-87
2021/01/17 00:41:36;;;;;;;27.27;4.55;;;6.80;91.00;;;;;;5034592;28;20036;-88
2021/01/17 00:44:02;;;;;;;;;;;6.70;91.00;;;;;;5055784;28;20081;-87
2021/01/17 00:46:35;;;;;;;24.55;5.07;;;6.70;90.60;;;;;;5052194;28;19940;-89
2021/01/17 00:49:01;;;;;;;34.00;4.60;;;6.70;90.80;;;;;;5060745;28;20122;-90
2021/01/17 00:51:36;;;;;;;28.48;4.43;;;6.70;90.70;;;;;;5044274;28;20113;-88
2021/01/17 00:54:01;;;;;;;35.50;6.50;;;6.70;90.40;;;;;;5046960;28;20049;-88
2021/01/17 00:56:27;;;;;;;30.77;5.20;;;6.70;90.60;;;;;;5044849;28;20466;-88
2021/01/17 00:58:52;;;;;;;28.92;4.40;;;6.60;90.90;;;;;;5047338;28;20039;-89
2021/01/17 01:01:18;;;;;;;24.27;5.38;;;6.60;90.70;;;;;;5043523;28;20021;-89
2021/01/17 01:03:44;;;;;;;28.50;4.65;;;6.60;90.70;;;;;;5047292;28;20493;-89
2021/01/17 01:06:16;;;;;;;24.98;4.97;;;6.50;90.90;;;;;;5041711;28;20027;-89
2021/01/17 01:08:42;;;;;;;34.30;5.35;;;6.50;90.90;;;;;;5049275;28;20470;-89
2021/01/17 01:11:08;;;;;;;35.50;5.57;;;6.50;90.90;;;;;;5032438;28;20075;-89
2021/01/17 01:13:33;;;;;;;31.80;4.85;;;6.50;90.90;;;;;;5049027;28;20054;-89
2021/01/17 01:15:59;;;;;;;25.27;4.38;;;6.50;90.70;;;;;;5045008;28;20079;-89
2021/01/17 01:18:24;;;;;;;24.40;4.00;;;6.40;91.00;;;;;;5048249;28;20086;-89
2021/01/17 01:20:50;;;;;;;26.75;4.85;;;6.30;91.10;;;;;;5054383;28;20071;-89
2021/01/17 01:23:16;;;;;;;31.52;4.90;;;6.20;90.80;;;;;;5040241;28;20034;-89
2021/01/17 01:25:41;;;;;;;33.38;5.50;;;6.30;90.90;;;;;;5023062;28;20059;-89
2021/01/17 01:28:07;;;;;;;19.25;4.40;;;6.30;90.30;;;;;;5052712;28;20086;-89
2021/01/17 01:30:32;;;;;;;24.92;4.20;;;6.20;90.00;;;;;;5034557;28;20071;-89
2021/01/17 01:32:58;;;;;;;34.33;4.88;;;6.20;89.90;;;;;;5052595;28;20032;-89
2021/01/17 01:35:24;;;;;;;32.25;4.47;;;6.30;89.10;;;;;;5052102;28;20029;-88
2021/01/17 01:37:49;;;;;;;27.25;4.85;;;6.30;90.00;;;;;;5064905;28;20108;-87
2021/01/17 01:40:15;;;;;;;25.95;5.00;;;6.30;90.30;;;;;;5073780;28;20025;-89
2021/01/17 01:42:42;;;;;;;28.48;4.75;;;6.30;90.60;;;;;;5059633;28;20446;-89
2021/01/17 01:45:09;;;;;;;38.20;5.93;;;6.30;90.30;;;;;;5036935;28;20029;-89
2021/01/17 01:47:35;;;;;;;26.10;4.50;;;6.30;90.50;;;;;;5061710;28;20021;-88
2021/01/17 01:50:02;;;;;;;31.17;4.60;;;6.30;90.40;;;;;;5070262;28;20025;-89
2021/01/17 01:52:27;;;;;;;30.13;4.88;;;6.30;90.50;;;;;;5058005;28;20028;-88
2021/01/17 01:54:53;;;;;;;22.08;4.38;;;6.30;90.60;;;;;;5051845;28;20026;-88
2021/01/17 01:57:19;;;;;;;30.30;4.50;;;6.30;90.40;;;;;;5052619;28;20056;-89
2021/01/17 01:59:45;;;;;;;22.90;4.22;;;6.40;90.30;;;;;;5058928;28;20028;-89
2021/01/17 02:02:11;;;;;;;29.58;4.68;;;6.50;90.10;;;;;;5046506;28;20412;-89
2021/01/17 02:04:37;;;;;;;22.33;3.47;;;6.40;90.30;;;;;;5061956;28;20077;-89
2021/01/17 02:07:22;;;;;;;31.80;5.13;;;6.40;89.90;;;;;;5067807;28;20055;-88
2021/01/17 02:09:48;;;;;;;28.90;5.00;;;6.40;90.10;;;;;;5052335;28;20076;-89
2021/01/17 02:12:42;;;;;;;23.48;3.88;;;6.40;90.10;;;;;;5049413;28;20025;-89
2021/01/17 02:15:17;;;;;;;27.02;4.82;;;6.40;89.70;;;;;;5056158;28;20026;-89
2021/01/17 02:17:45;;;;;;;23.92;3.60;;;6.50;89.10;;;;;;5057362;28;20033;-89
2021/01/17 02:20:19;;;;;;;34.25;4.97;;;6.50;88.60;;;;;;5036103;28;20021;-91
2021/01/17 02:23:02;;;;;;;24.00;3.10;;;6.50;87.90;;;;;;5067266;28;20044;-90
2021/01/17 02:25:34;;;;;;;22.58;4.65;;;6.60;86.50;;;;;;5022670;28;20489;-90
2021/01/17 02:28:12;;;;;;;20.67;4.35;;;6.60;86.60;;;;;;5053431;28;20029;-91
2021/01/17 02:30:45;;;;;;;25.20;4.05;;;6.70;87.30;;;;;;5052720;28;20378;-90
2021/01/17 02:33:16;;;;;;;22.00;3.70;;;6.70;86.40;;;;;;5038147;28;20168;-89
2021/01/17 02:35:44;;;;;;;27.50;4.10;;;6.70;85.70;;;;;;5041919;28;20073;-90
2021/01/17 02:39:03;;;;;;;23.95;4.10;;;6.80;85.80;;;;;;5049381;28;20025;-90
2021/01/17 02:41:31;;;;;;;28.00;3.55;;;6.80;85.90;;;;;;4970169;28;20544;-89
2021/01/17 02:43:58;;;;;;;13.02;3.33;;;6.80;86.70;;;;;;5052253;28;20139;-90
2021/01/17 02:46:23;;;;;;;24.45;4.68;;;6.90;85.30;;;;;;5045393;28;20032;-90
2021/01/17 02:48:49;;;;;;;25.90;3.50;;;6.90;85.70;;;;;;5048563;28;20017;-90
2021/01/17 02:51:15;;;;;;;28.83;4.53;;;6.80;86.00;;;;;;5034944;28;20029;-91
2021/01/17 02:53:48;;;;;;;26.25;4.60;;;6.70;86.70;;;;;;5048133;28;20081;-88
2021/01/17 02:56:18;;;;;;;24.17;4.82;;;6.60;87.40;;;;;;5049653;28;20034;-89
2021/01/17 02:58:49;;;;;;;34.55;4.18;;;6.60;88.10;;;;;;5036349;28;20064;-89
2021/01/17 03:01:21;;;;;;;24.27;3.42;;;6.50;88.40;;;;;;5053050;28;20027;-89
2021/01/17 03:03:48;;;;;;;24.20;4.55;;;6.40;90.00;;;;;;5043255;28;20035;-88
2021/01/17 03:06:14;;;;;;;26.95;4.10;;;6.30;90.30;;;;;;5047860;28;20381;-89
2021/01/17 03:08:41;;;;;;;28.13;4.28;;;6.20;90.70;;;;;;5053312;28;20107;-89
2021/01/17 03:11:06;;;;;;;29.00;5.50;;;6.20;90.90;;;;;;5056471;28;20098;-89
2021/01/17 03:13:40;;;;;;;29.83;3.75;;;6.10;90.80;;;;;;5055412;28;20474;-89
2021/01/17 03:16:07;;;;;;;33.58;4.60;;;6.00;91.30;;;;;;5039079;28;20044;-89
2021/01/17 03:18:33;;;;;;;;;;;5.90;91.70;;;;;;5056175;28;20474;-88
2021/01/17 03:20:59;;;;;;;27.65;4.03;;;5.90;91.70;;;;;;5039686;28;19994;-86
2021/01/17 03:23:24;;;;;;;33.13;6.75;;;5.90;91.90;;;;;;5060733;28;20067;-89
2021/01/17 03:25:50;;;;;;;40.10;4.95;;;5.90;91.80;;;;;;5073778;28;20021;-88
2021/01/17 03:28:16;;;;;;;30.92;4.22;;;6.00;91.60;;;;;;5083365;28;20060;-89
2021/01/17 03:30:41;;;;;;;24.17;4.60;;;6.10;91.40;;;;;;5066946;28;20040;-89
2021/01/17 03:33:07;;;;;;;37.03;4.30;;;6.10;91.60;;;;;;5047751;28;20068;-89
2021/01/17 03:35:33;;;;;;;53.97;5.90;;;6.10;91.70;;;;;;5051441;28;20040;-89
2021/01/17 03:37:58;;;;;;;31.35;4.53;;;6.10;92.00;;;;;;5060362;28;20037;-89
2021/01/17 03:40:26;;;;;;;27.85;4.82;;;6.10;91.90;;;;;;5042426;28;20028;-89
2021/01/17 03:42:51;;;;;;;24.98;4.03;;;6.10;91.90;;;;;;5049368;28;20114;-90
2021/01/17 03:45:17;;;;;;;33.47;4.22;;;6.00;91.80;;;;;;5060236;28;20063;-87
2021/01/17 03:47:43;;;;;;;29.63;4.47;;;5.90;92.20;;;;;;5055573;28;20034;-90
2021/01/17 03:50:09;;;;;;;25.38;4.55;;;5.80;92.40;;;;;;5054096;28;20032;-89
2021/01/17 03:52:35;;;;;;;19.05;3.45;;;5.70;92.60;;;;;;5034481;28;20033;-89
2021/01/17 03:55:01;;;;;;;22.75;3.55;;;5.60;92.60;;;;;;5049275;28;20102;-89
2021/01/17 03:57:26;;;;;;;24.98;4.05;;;5.50;92.90;;;;;;5037388;28;20045;-89
2021/01/17 03:59:52;;;;;;;23.92;4.82;;;5.50;92.90;;;;;;5042774;28;20021;-90
2021/01/17 04:02:17;;;;;;;38.72;4.68;;;5.40;93.20;;;;;;5047849;28;20044;-89
2021/01/17 04:04:43;;;;;;;26.23;4.78;;;5.30;93.20;;;;;;5053017;28;20029;-89
2021/01/17 04:07:09;;;;;;;31.75;4.80;;;5.30;93.50;;;;;;5047910;28;20013;-89
2021/01/17 04:09:35;;;;;;;;;;;5.30;93.70;;;;;;5041345;28;20482;-89
2021/01/17 04:12:00;;;;;;;26.20;4.57;;;5.20;93.70;;;;;;5037757;28;19905;-89
2021/01/17 04:14:26;;;;;;;23.77;4.40;;;5.20;93.80;;;;;;5052858;28;20120;-89
2021/01/17 04:16:52;;;;;;;24.65;3.90;;;5.20;93.90;;;;;;5047953;28;20033;-89
2021/01/17 04:19:19;;;;;;;24.02;3.72;;;5.10;94.00;;;;;;5049688;28;20105;-87
2021/01/17 04:21:45;;;;;;;20.50;3.67;;;5.20;94.00;;;;;;5053578;28;20028;-89
2021/01/17 04:24:11;;;;;;;28.05;3.83;;;5.20;94.00;;;;;;5072936;28;20029;-88
2021/01/17 04:26:37;;;;;;;19.35;3.45;;;5.30;93.60;;;;;;5057044;28;20038;-88
2021/01/17 04:29:03;;;;;;;;;;;5.30;93.70;;;;;;5054937;28;20028;-89
2021/01/17 04:31:44;;;;;;;32.08;4.88;;;5.20;93.80;;;;;;5053005;28;19905;-88
2021/01/17 04:34:10;;;;;;;29.75;4.85;;;5.10;94.00;;;;;;5054302;28;20043;-89
2021/01/17 04:36:37;;;;;;;28.05;4.05;;;5.00;94.30;;;;;;5054760;28;20041;-89
2021/01/17 04:39:06;;;;;;;20.85;4.03;;;5.00;94.40;;;;;;5045529;28;20050;-88
2021/01/17 04:41:34;;;;;;;27.50;4.45;;;5.10;94.40;;;;;;5046899;28;20017;-89
2021/01/17 04:44:03;;;;;;;17.30;3.50;;;5.10;94.40;;;;;;5052965;28;20021;-89
2021/01/17 04:46:30;;;;;;;24.90;4.38;;;5.20;94.20;;;;;;5044506;28;20103;-89
2021/01/17 04:49:04;;;;;;;21.23;3.47;;;5.30;93.90;;;;;;5052935;28;20068;-88
2021/01/17 04:51:30;;;;;;;31.10;5.18;;;5.20;93.80;;;;;;5034387;28;20467;-88
2021/01/17 04:54:00;;;;;;;21.80;4.07;;;5.20;93.90;;;;;;5044398;28;20035;-88
2021/01/17 04:56:27;;;;;;;17.67;3.30;;;5.20;93.80;;;;;;5053004;28;20059;-89
2021/01/17 04:59:10;;;;;;;20.40;3.78;;;5.30;93.20;;;;;;5052023;28;20067;-88
2021/01/17 05:01:44;;;;;;;18.65;3.00;;;5.30;92.90;;;;;;5054343;28;20029;-89
2021/01/17 05:04:28;;;;;;;19.30;2.90;;;5.40;92.20;;;;;;5053492;28;20028;-90
2021/01/17 05:06:58;;;;;;;19.63;3.15;;;5.50;91.90;;;;;;5058838;28;20028;-93
2021/01/17 05:09:30;;;;;;;13.15;2.67;;;5.60;91.10;;;;;;5039879;28;20032;-90
2021/01/17 05:12:10;;;;;;;11.18;2.35;;;5.70;90.60;;;;;;5049286;28;20056;-91
2021/01/17 05:14:43;;;;;;;15.40;3.30;;;5.90;90.20;;;;;;5077645;28;20036;-89
2021/01/17 05:17:19;;;;;;;11.02;2.50;;;6.00;89.50;;;;;;5072523;28;20561;-89
2021/01/17 05:19:47;;;;;;;11.60;3.13;;;6.00;89.30;;;;;;5023625;28;20032;-90
2021/01/17 05:22:14;;;;;;;10.73;2.03;;;6.10;89.00;;;;;;5038006;28;20032;-91
2021/01/17 05:24:44;;;;;;;12.13;2.30;;;6.10;88.70;;;;;;5053190;28;20059;-90
2021/01/17 05:27:10;;;;;;;14.13;1.85;;;6.10;88.80;;;;;;5037518;28;20117;-92
2021/01/17 05:29:36;;;;;;;9.88;2.22;;;6.10;88.80;;;;;;5050898;28;20104;-90
2021/01/17 05:32:04;;;;;;;13.35;2.50;;;6.10;89.10;;;;;;5052652;28;20067;-90
2021/01/17 05:34:31;;;;;;;9.90;1.90;;;6.10;89.00;;;;;;5043844;28;20385;-91
2021/01/17 05:37:15;;;;;;;10.30;2.15;;;6.20;88.20;;;;;;5058679;28;20033;-90
2021/01/17 05:39:54;;;;;;;8.85;1.73;;;6.20;88.10;;;;;;5037630;28;20061;-90
2021/01/17 05:42:22;;;;;;;10.75;2.03;;;6.20;87.50;;;;;;5064304;28;20125;-90
2021/01/17 05:44:47;;;;;;;9.18;2.17;;;6.20;87.20;;;;;;5045459;28;20377;-90
2021/01/17 05:47:13;;;;;;;11.38;2.38;;;6.20;87.10;;;;;;5051483;28;20028;-90
2021/01/17 05:49:39;;;;;;;10.82;1.90;;;6.20;87.20;;;;;;5032989;28;20478;-90
2021/01/17 05:52:16;;;;;;;15.75;2.33;;;6.20;87.00;;;;;;5029444;28;20295;-90
2021/01/17 05:54:46;;;;;;;15.45;2.70;;;6.20;87.20;;;;;;5019877;28;20029;-90
2021/01/17 05:57:14;;;;;;;13.35;2.67;;;6.10;87.80;;;;;;5052285;28;20063;-91
2021/01/17 05:59:40;;;;;;;12.18;2.20;;;6.00;88.20;;;;;;5033516;28;20029;-90
2021/01/17 06:02:20;;;;;;;22.00;3.55;;;6.00;89.20;;;;;;5048859;28;20078;-90
2021/01/17 06:04:59;;;;;;;24.30;4.53;;;6.10;88.80;;;;;;5040303;28;20479;-90
2021/01/17 06:07:27;;;;;;;13.85;3.15;;;6.10;89.40;;;;;;5048768;28;20044;-90
2021/01/17 06:10:07;;;;;;;12.98;3.05;;;6.20;88.80;;;;;;5047225;28;20028;-90
2021/01/17 06:12:35;;;;;;;10.50;2.00;;;6.20;88.10;;;;;;5031610;28;20024;-89
2021/01/17 06:15:12;;;;;;;15.23;4.03;;;6.20;87.90;;;;;;5053267;28;20128;-91
2021/01/17 06:17:39;;;;;;;13.77;2.33;;;6.10;88.90;;;;;;5034554;28;20039;-89
2021/01/17 06:20:09;;;;;;;16.70;4.90;;;6.00;89.20;;;;;;5033611;28;20024;-90
2021/01/17 06:22:36;;;;;;;16.13;2.92;;;6.00;89.60;;;;;;5052772;28;20021;-92
2021/01/17 06:25:06;;;;;;;10.60;2.30;;;6.00;89.60;;;;;;5028317;28;20030;-90
2021/01/17 06:27:32;;;;;;;16.08;3.50;;;6.00;89.50;;;;;;5030584;28;20049;-90
2021/01/17 06:29:58;;;;;;;;;;;6.00;89.30;;;;;;5053472;28;20021;-90
2021/01/17 06:32:26;;;;;;;12.35;2.13;;;5.90;89.50;;;;;;5057437;28;19900;-89
2021/01/17 06:34:56;;;;;;;15.70;2.75;;;5.80;90.00;;;;;;5073084;28;20104;-90
2021/01/17 06:37:28;;;;;;;13.85;2.50;;;5.80;90.10;;;;;;5055863;28;20079;-89
2021/01/17 06:39:57;;;;;;;8.40;1.90;;;5.70;90.60;;;;;;5047543;28;20021;-90
2021/01/17 06:42:25;;;;;;;7.78;1.88;;;5.60;90.50;;;;;;5042148;28;20029;-89
2021/01/17 06:44:52;;;;;;;14.63;2.58;;;5.60;90.70;;;;;;5035692;28;20481;-90
2021/01/17 06:47:26;;;;;;;16.55;2.50;;;5.60;90.70;;;;;;5057522;28;20361;-89
2021/01/17 06:49:55;;;;;;;10.73;2.00;;;5.60;90.70;;;;;;5055460;28;20094;-90
2021/01/17 06:52:22;;;;;;;14.05;2.38;;;5.60;90.70;;;;;;5065653;28;20025;-90
2021/01/17 06:54:49;;;;;;;15.32;2.25;;;5.50;90.70;;;;;;5060181;28;20032;-88
2021/01/17 06:57:16;;;;;;;9.27;1.73;;;5.60;90.40;;;;;;5056395;28;20504;-87
2021/01/17 06:59:46;;;;;;;11.60;1.83;;;5.60;90.40;;;;;;5058692;28;20025;-89
2021/01/17 07:04:52;;;;;;;13.32;1.98;;;5.60;90.70;;;;;;5073182;28;20025;-85
2021/01/17 07:10:13;;;;;;;14.38;3.10;;;5.60;90.70;;;;;;5102024;22;20053;-87
2021/01/17 07:12:44;;;;;;;12.55;2.40;;;5.60;90.50;;;;;;5078280;28;20032;-87
2021/01/17 07:15:11;;;;;;;19.42;2.97;;;5.60;90.60;;;;;;5084889;28;20065;-90
2021/01/17 07:17:39;;;;;;;13.85;2.55;;;5.50;90.50;;;;;;5077490;28;20041;-89
2021/01/17 07:20:13;;;;;;;20.70;2.55;;;5.50;90.50;;;;;;5077496;28;20503;-90
2021/01/17 07:22:42;;;;;;;7.00;1.95;;;5.50;90.50;;;;;;5077936;28;20025;-91
2021/01/17 07:25:10;;;;;;;8.85;1.90;;;5.50;90.40;;;;;;5077563;28;20099;-90
2021/01/17 07:27:56;;;;;;;12.10;2.10;;;5.50;90.20;;;;;;5057562;28;20056;-90
2021/01/17 07:30:36;;;;;;;13.88;2.03;;;5.50;90.20;;;;;;5047664;28;20041;-90
2021/01/17 07:33:03;;;;;;;5.07;1.98;;;5.50;90.10;;;;;;5042967;28;20512;-90
2021/01/17 07:35:39;;;;;;;8.45;2.17;;;5.50;90.20;;;;;;5063489;28;20270;-90
2021/01/17 07:38:15;;;;;;;9.95;1.98;;;5.30;90.50;;;;;;5054842;28;20033;-90
2021/01/17 07:40:52;;;;;;;;;;;5.20;90.80;;;;;;5056228;28;20017;-90
2021/01/17 07:43:21;;;;;;;8.10;1.52;;;5.10;91.10;;;;;;5055507;28;20281;-89
2021/01/17 07:45:47;;;;;;;9.77;1.67;;;5.00;90.90;;;;;;5068886;28;20199;-90
2021/01/17 07:48:15;;;;;;;11.75;1.80;;;5.00;91.10;;;;;;5057115;28;20028;-90
2021/01/17 07:50:52;;;;;;;7.90;1.92;;;4.90;91.30;;;;;;5061715;28;20025;-89
2021/01/17 07:53:34;;;;;;;16.80;2.22;;;4.80;91.90;;;;;;5058357;28;20473;-89
2021/01/17 07:56:22;;;;;;;12.57;2.13;;;4.70;92.20;;;;;;5063902;28;20089;-90
2021/01/17 07:58:50;;;;;;;19.90;2.35;;;4.60;92.80;;;;;;5070691;28;20040;-89
2021/01/17 08:01:31;;;;;;;20.20;2.88;;;4.50;93.00;;;;;;5057866;28;20029;-91
2021/01/17 08:04:17;;;;;;;12.27;2.40;;;4.40;93.40;;;;;;5054096;28;20883;-90
2021/01/17 08:06:45;;;;;;;14.82;3.33;;;4.30;93.50;;;;;;5054096;28;20070;-90
2021/01/17 08:09:15;;;;;;;14.82;2.80;;;4.10;93.70;;;;;;5055214;28;20482;-87
2021/01/17 08:12:00;;;;;;;17.77;2.47;;;4.00;94.10;;;;;;5055284;28;20111;-89
2021/01/17 08:14:30;;;;;;;24.17;3.75;;;3.90;94.30;;;;;;5052262;28;20024;-89
2021/01/17 08:17:03;;;;;;;18.85;4.75;;;3.80;94.70;;;;;;5055110;28;20107;-89
2021/01/17 08:19:39;;;;;;;16.05;3.83;;;3.80;94.70;;;;;;5055492;28;20111;-91
2021/01/17 08:22:17;;;;;;;11.05;2.60;;;3.90;94.60;;;;;;5051535;28;20032;-89
2021/01/17 08:24:43;;;;;;;7.85;2.30;;;3.90;94.50;;;;;;5053902;28;20108;-89
2021/01/17 08:27:09;;;;;;;13.70;2.70;;;3.90;94.60;;;;;;5055407;28;20482;-89
2021/01/17 08:30:00;;;;;;;16.58;3.47;;;3.90;94.60;;;;;;5060428;28;20158;-90
2021/01/17 08:32:49;;;;;;;12.05;3.05;;;3.80;94.60;;;;;;5061140;28;20021;-89
2021/01/17 08:37:49;;;;;;;14.73;3.15;;;3.80;94.80;;;;;;5069334;28;20040;-88
2021/01/17 08:40:30;;;;;;;9.57;2.22;;;3.70;94.90;;;;;;5058171;28;20116;-90
2021/01/17 08:42:57;;;;;;;10.73;2.15;;;3.90;94.90;;;;;;5066029;28;20037;-89
2021/01/17 08:45:23;;;;;;;10.95;2.75;;;4.00;94.90;;;;;;5057963;28;20032;-90
2021/01/17 08:47:50;;;;;;;9.65;2.30;;;4.10;94.90;;;;;;5049355;28;20080;-89
2021/01/17 08:50:36;;;;;;;12.68;2.70;;;4.20;94.50;;;;;;5062767;28;20029;-90
2021/01/17 08:53:21;;;;;;;16.02;3.63;;;4.30;94.40;;;;;;5066682;28;20040;-89
2021/01/17 08:56:10;;;;;;;17.50;3.00;;;4.30;94.50;;;;;;5066348;28;20116;-90
2021/01/17 08:58:35;;;;;;;19.08;2.42;;;4.30;94.60;;;;;;5056440;28;20049;-89
2021/01/17 09:01:06;;;;;;;11.93;2.53;;;4.20;94.70;;;;;;5059687;28;20024;-90
2021/01/17 09:03:41;;;;;;;17.20;3.08;;;4.30;94.60;;;;;;5045909;28;20378;-89
2021/01/17 09:06:13;;;;;;;11.27;3.13;;;4.30;94.60;;;;;;5039220;28;20037;-89
2021/01/17 09:08:48;;;;;;;14.15;3.78;;;4.30;94.70;;;;;;5053703;28;20414;-88
2021/01/17 09:11:29;;;;;;;15.73;3.00;;;4.40;94.50;;;;;;5054747;28;20432;-90
2021/01/17 09:14:07;;;;;;;10.10;2.90;;;4.50;94.60;;;;;;5060456;28;20493;-89
2021/01/17 09:16:37;;;;;;;12.05;3.63;;;4.60;94.40;;;;;;5056102;28;20025;-88
2021/01/17 09:19:06;;;;;;;20.83;2.78;;;4.70;94.30;;;;;;5053754;28;20025;-87
2021/01/17 09:21:33;;;;;;;26.70;3.50;;;4.80;94.00;;;;;;5051964;28;20017;-87
2021/01/17 09:24:05;;;;;;;15.45;3.30;;;4.90;93.90;;;;;;5059254;28;20025;-86
2021/01/17 09:26:31;;;;;;;18.67;4.10;;;5.00;93.90;;;;;;5056830;28;20497;-86
2021/01/17 09:28:57;;;;;;;12.07;2.70;;;5.10;93.60;;;;;;5059992;28;20040;-88
2021/01/17 09:31:24;;;;;;;7.88;2.05;;;5.20;93.40;;;;;;5059572;28;20017;-86
2021/01/17 09:33:50;;;;;;;15.20;2.65;;;5.20;93.10;;;;;;5052880;28;20036;-86
2021/01/17 09:36:24;;;;;;;8.30;2.25;;;5.20;93.30;;;;;;5051471;28;20032;-87
2021/01/17 09:38:50;;;;;;;20.60;2.47;;;5.20;93.40;;;;;;5053625;28;20650;-85
2021/01/17 09:41:24;;;;;;;13.82;2.25;;;5.20;93.60;;;;;;5057935;28;20021;-87
2021/01/17 09:43:51;;;;;;;7.38;2.20;;;5.30;93.30;;;;;;5050762;28;20090;-87
2021/01/17 09:46:21;;;;;;;13.38;2.25;;;5.40;93.00;;;;;;5055357;28;20021;-88
2021/01/17 09:48:59;;;;;;;10.95;1.90;;;5.50;92.80;;;;;;5050427;28;20021;-87
2021/01/17 09:51:29;;;;;;;9.30;2.13;;;5.60;92.60;;;;;;5053536;28;20121;-89
2021/01/17 09:53:56;;;;;;;13.10;2.50;;;5.70;92.60;;;;;;5055632;28;20021;-88
2021/01/17 09:56:22;;;;;;;16.38;3.42;;;5.70;92.50;;;;;;5052181;28;20084;-88
2021/01/17 09:58:48;;;;;;;10.00;3.33;;;5.80;92.60;;;;;;5052358;28;20060;-87
2021/01/17 10:01:20;;;;;;;14.88;3.20;;;5.80;92.50;;;;;;5053084;28;20043;-89
2021/01/17 10:03:49;;;;;;;13.07;3.17;;;5.90;92.60;;;;;;5056750;28;20025;-89
2021/01/17 10:06:16;;;;;;;17.77;5.22;;;6.00;92.70;;;;;;5054186;28;20112;-91
2021/01/17 10:08:43;;;;;;;24.48;4.00;;;6.00;92.30;;;;;;5051631;28;20112;-91
2021/01/17 10:11:09;;;;;;;15.48;3.10;;;6.00;92.40;;;;;;5053300;28;20591;-90
2021/01/17 10:13:35;;;;;;;11.05;3.10;;;6.10;92.40;;;;;;5043957;28;20034;-92
2021/01/17 10:16:00;;;;;;;14.00;3.25;;;6.10;92.30;;;;;;5053813;28;20105;-90
2021/01/17 10:18:26;;;;;;;12.55;2.45;;;6.30;92.20;;;;;;5057403;28;20033;-92
2021/01/17 10:20:56;;;;;;;14.95;2.33;;;6.40;91.80;;;;;;5052088;28;20102;-92
2021/01/17 10:23:30;;;;;;;13.70;2.72;;;6.60;91.40;;;;;;5038573;28;20061;-92
2021/01/17 10:25:57;;;;;;;19.73;3.60;;;6.60;91.10;;;;;;5048701;28;20018;-90
2021/01/17 10:28:26;;;;;;;9.13;2.00;;;6.70;90.70;;;;;;5060271;28;20025;-88
2021/01/17 10:30:59;;;;;;;14.15;2.88;;;6.80;90.60;;;;;;5065059;28;20022;-89
2021/01/17 10:33:28;;;;;;;13.93;4.20;;;6.90;90.30;;;;;;5050891;28;20103;-89
2021/01/17 10:35:54;;;;;;;15.40;4.03;;;6.90;90.10;;;;;;5054018;28;20108;-90
2021/01/17 10:38:20;;;;;;;13.63;2.05;;;6.90;90.10;;;;;;5058828;28;20069;-91
2021/01/17 10:40:48;;;;;;;12.23;2.20;;;6.80;89.50;;;;;;5055601;28;20076;-90
2021/01/17 10:43:32;;;;;;;10.75;2.00;;;6.90;90.20;;;;;;5068888;28;20536;-89
2021/01/17 10:46:24;;;;;;;9.75;1.88;;;6.90;89.90;;;;;;5075903;28;20005;-88
2021/01/17 10:49:10;;;;;;;23.02;2.80;;;7.00;89.30;;;;;;5076310;28;20033;-87
2021/01/17 10:51:46;;;;;;;16.55;2.67;;;7.10;89.60;;;;;;5076089;28;20013;-89
2021/01/17 10:54:24;;;;;;;7.68;2.00;;;7.20;88.50;;;;;;5071269;28;20021;-89
2021/01/17 10:56:54;;;;;;;12.68;2.33;;;7.20;88.60;;;;;;5051486;28;20394;-89
2021/01/17 10:59:26;;;;;;;7.57;2.50;;;7.30;87.90;;;;;;5044159;28;20018;-89
2021/01/17 11:01:52;;;;;;;9.52;2.47;;;7.40;87.70;;;;;;5032690;28;20064;-90
2021/01/17 11:04:18;;;;;;;10.20;2.63;;;7.50;86.30;;;;;;5034185;28;20025;-88
2021/01/17 11:06:45;;;;;;;18.02;2.22;;;7.50;86.70;;;;;;5041554;28;20026;-88
2021/01/17 11:09:15;;;;;;;15.85;3.42;;;7.60;86.00;;;;;;5033066;28;20025;-88
2021/01/17 11:11:43;;;;;;;12.63;1.80;;;7.60;86.10;;;;;;5019236;28;20037;-88
2021/01/17 11:14:09;;;;;;;16.40;2.10;;;7.60;85.40;;;;;;5030301;28;20028;-88
2021/01/17 11:16:56;;;;;;;9.63;2.53;;;7.70;86.00;;;;;;5037100;28;20121;-88
2021/01/17 11:19:36;;;;;;;7.80;2.17;;;7.70;86.10;;;;;;5032929;28;20109;-88
2021/01/17 11:22:03;;;;;;;8.35;2.13;;;7.70;85.20;;;;;;5034759;28;20021;-88
2021/01/17 11:24:36;;;;;;;7.28;2.00;;;7.70;86.30;;;;;;5033070;28;20533;-88
2021/01/17 11:27:16;;;;;;;9.43;2.10;;;7.90;85.20;;;;;;5033268;28;20405;-89
2021/01/17 11:29:42;;;;;;;14.80;2.58;;;8.00;84.40;;;;;;5029415;28;20017;-87
2021/01/17 11:32:10;;;;;;;15.20;2.10;;;8.00;84.20;;;;;;5034293;28;20022;-89
2021/01/17 11:34:38;;;;;;;11.57;2.60;;;8.00;84.50;;;;;;5022875;28;20530;-87
2021/01/17 11:37:04;;;;;;;13.18;2.38;;;8.10;83.80;;;;;;5044138;28;20041;-87
2021/01/17 11:39:30;;;;;;;10.15;2.00;;;8.10;84.90;;;;;;5054373;28;20016;-86
2021/01/17 11:41:56;;;;;;;11.82;2.67;;;8.00;85.80;;;;;;5033148;28;20116;-89
2021/01/17 11:44:33;;;;;;;13.55;2.10;;;8.00;84.50;;;;;;5047784;28;20056;-85
2021/01/17 11:47:01;;;;;;;8.30;1.98;;;8.00;85.50;;;;;;5040854;28;20083;-89
2021/01/17 11:49:28;;;;;;;13.98;2.15;;;8.10;85.50;;;;;;5038480;28;20018;-88
2021/01/17 11:51:54;;;;;;;14.20;2.30;;;8.10;84.90;;;;;;5036618;28;20029;-88
2021/01/17 11:54:32;;;;;;;28.42;4.28;;;8.20;84.70;;;;;;5016816;28;20056;-88
2021/01/17 11:57:11;;;;;;;10.07;2.25;;;8.30;85.00;;;;;;5030025;28;20061;-89
2021/01/17 11:59:38;;;;;;;11.77;2.00;;;8.40;83.70;;;;;;5030619;28;20026;-87
2021/01/17 12:02:21;;;;;;;10.30;2.28;;;8.50;84.40;;;;;;5022799;28;20018;-87
2021/01/17 12:04:56;;;;;;;11.02;1.98;;;8.30;85.10;;;;;;5016207;28;20483;-90
2021/01/17 12:07:21;;;;;;;13.18;2.17;;;8.10;85.40;;;;;;5031014;28;20022;-89
2021/01/17 12:09:47;;;;;;;20.23;2.67;;;8.10;85.30;;;;;;5036888;28;20038;-89
2021/01/17 12:12:17;;;;;;;10.18;2.17;;;8.30;84.90;;;;;;5035899;28;20057;-89
2021/01/17 12:14:43;;;;;;;12.15;2.63;;;8.50;84.10;;;;;;5034967;28;20083;-88
2021/01/17 12:17:10;;;;;;;12.00;2.30;;;8.40;84.30;;;;;;5035129;28;20026;-86
2021/01/17 12:19:36;;;;;;;16.15;2.88;;;8.50;84.90;;;;;;5036272;28;20028;-86
2021/01/17 12:22:04;;;;;;;15.55;2.53;;;8.60;83.80;;;;;;5025912;28;20097;-85
2021/01/17 12:24:30;;;;;;;9.07;2.92;;;8.60;83.70;;;;;;5031252;28;20109;-85
2021/01/17 12:26:56;;;;;;;7.25;2.40;;;8.70;83.30;;;;;;5033906;28;20053;-83
2021/01/17 12:29:22;;;;;;;15.30;2.45;;;8.60;84.20;;;;;;5034079;28;20555;-84
2021/01/17 12:31:49;;;;;;;10.60;2.35;;;8.60;83.10;;;;;;5050237;28;20033;-84
2021/01/17 12:34:14;;;;;;;13.50;2.85;;;8.60;83.60;;;;;;5048595;28;20391;-87
2021/01/17 12:36:43;;;;;;;7.13;2.42;;;8.60;83.30;;;;;;5034360;28;20025;-86
2021/01/17 12:39:11;;;;;;;19.00;4.10;;;8.60;84.00;;;;;;5042134;28;20028;-85
2021/01/17 12:42:01;;;;;;;15.18;3.25;;;8.60;84.80;;;;;;5036710;28;20037;-85
2021/01/17 12:44:28;;;;;;;13.98;3.15;;;8.60;84.30;;;;;;5039222;28;20038;-86
2021/01/17 12:46:53;;;;;;;17.67;2.72;;;8.50;85.50;;;;;;5034504;28;20144;-88
2021/01/17 12:49:19;;;;;;;14.35;2.90;;;8.50;84.70;;;;;;5036137;28;20028;-88
2021/01/17 12:51:45;;;;;;;15.43;2.55;;;8.50;85.50;;;;;;5034107;28;20029;-90
2021/01/17 12:54:12;;;;;;;15.60;3.50;;;8.50;84.90;;;;;;5033122;28;20018;-88
2021/01/17 12:56:37;;;;;;;17.92;4.03;;;8.60;85.00;;;;;;5052720;28;20083;-87
2021/01/17 12:59:04;;;;;;;19.17;3.13;;;8.50;85.20;;;;;;5058225;28;20029;-89
2021/01/17 13:01:30;;;;;;;14.23;2.95;;;8.50;85.80;;;;;;5035269;28;20038;-87
2021/01/17 13:03:55;;;;;;;15.18;3.05;;;8.50;85.30;;;;;;5023323;28;20029;-85
2021/01/17 13:06:21;;;;;;;13.13;3.17;;;8.50;84.50;;;;;;5024097;28;20030;-84
2021/01/17 13:08:46;;;;;;;11.82;2.78;;;8.50;85.40;;;;;;5034360;28;20055;-84
2021/01/17 13:11:14;;;;;;;14.60;2.85;;;8.60;85.30;;;;;;5030484;28;20029;-82